sensor_id;sensor_type;location;lat;lon;timestamp;temperature;humidity
15676;DHT22;7938;47.666;9.434;2023-06-01T04:01:23;13.10;93.40
15676;DHT22;7938;47.666;9.434;2023-06-01T04:03:54;12.60;93.40
15676;DHT22;7938;47.666;9.434;2023-06-01T04:06:22;12.60;93.80
15676;DHT22;7938;47.666;9.434;2023-06-01T04:08:49;12.70;93.40
15676;DHT22;7938;47.666;9.434;2023-06-01T04:11:21;12.70;93.50
15676;DHT22;7938;47.666;9.434;2023-06-01T04:13:48;12.60;93.70
15676;DHT22;7938;47.666;9.434;2023-06-01T04:16:15;12.70;94.30
15676;DHT22;7938;47.666;9.434;2023-06-01T04:18:44;12.70;93.70
15676;DHT22;7938;47.666;9.434;2023-06-01T04:21:10;12.50;94.10
15676;DHT22;7938;47.666;9.434;2023-06-01T04:23:37;12.50;94.30
15676;DHT22;7938;47.666;9.434;2023-06-01T04:26:04;12.50;94.50
15676;DHT22;7938;47.666;9.434;2023-06-01T04:28:32;12.50;94.50
15676;DHT22;7938;47.666;9.434;2023-06-01T04:30:59;12.60;94.20
15676;DHT22;7938;47.666;9.434;2023-06-01T04:33:27;12.60;94.40
15676;DHT22;7938;47.666;9.434;2023-06-01T04:35:56;12.70;94.10
15676;DHT22;7938;47.666;9.434;2023-06-01T04:38:23;12.80;94.10
15676;DHT22;7938;47.666;9.434;2023-06-01T04:40:50;13.00;94.10
15676;DHT22;7938;47.666;9.434;2023-06-01T04:43:19;13.00;94.30
15676;DHT22;7938;47.666;9.434;2023-06-01T04:45:46;13.10;94.30
15676;DHT22;7938;47.666;9.434;2023-06-01T04:48:13;13.10;93.90
15676;DHT22;7938;47.666;9.434;2023-06-01T04:50:42;13.10;94.50
15676;DHT22;7938;47.666;9.434;2023-06-01T04:53:11;13.10;94.40
15676;DHT22;7938;47.666;9.434;2023-06-01T04:55:38;13.30;94.20
15676;DHT22;7938;47.666;9.434;2023-06-01T04:58:05;13.40;94.20
15676;DHT22;7938;47.666;9.434;2023-06-01T05:00:32;13.50;94.00
15676;DHT22;7938;47.666;9.434;2023-06-01T05:02:59;13.50;94.20
15676;DHT22;7938;47.666;9.434;2023-06-01T05:05:28;13.60;93.80
15676;DHT22;7938;47.666;9.434;2023-06-01T05:07:55;13.70;93.70
15676;DHT22;7938;47.666;9.434;2023-06-01T05:10:23;14.00;93.10
15676;DHT22;7938;47.666;9.434;2023-06-01T05:12:50;14.00;93.30
15676;DHT22;7938;47.666;9.434;2023-06-01T05:15:17;14.00;93.40
15676;DHT22;7938;47.666;9.434;2023-06-01T05:17:44;14.20;93.50
15676;DHT22;7938;47.666;9.434;2023-06-01T05:20:13;14.30;93.10
15676;DHT22;7938;47.666;9.434;2023-06-01T05:22:40;14.30;92.90
15676;DHT22;7938;47.666;9.434;2023-06-01T05:25:08;14.40;93.10
15676;DHT22;7938;47.666;9.434;2023-06-01T05:27:38;14.50;93.60
15676;DHT22;7938;47.666;9.434;2023-06-01T05:30:06;14.70;93.20
15676;DHT22;7938;47.666;9.434;2023-06-01T05:32:33;14.80;92.90
15676;DHT22;7938;47.666;9.434;2023-06-01T05:35:00;14.90;92.70
15676;DHT22;7938;47.666;9.434;2023-06-01T05:37:26;14.90;92.10
15676;DHT22;7938;47.666;9.434;2023-06-01T05:39:53;15.00;92.10
15676;DHT22;7938;47.666;9.434;2023-06-01T05:42:20;15.10;92.50
15676;DHT22;7938;47.666;9.434;2023-06-01T05:44:48;15.20;92.60
15676;DHT22;7938;47.666;9.434;2023-06-01T05:47:15;15.30;92.30
15676;DHT22;7938;47.666;9.434;2023-06-01T05:49:42;15.30;92.10
15676;DHT22;7938;47.666;9.434;2023-06-01T05:52:09;15.40;91.90
15676;DHT22;7938;47.666;9.434;2023-06-01T05:54:39;15.60;92.50
15676;DHT22;7938;47.666;9.434;2023-06-01T05:57:06;15.70;92.20
15676;DHT22;7938;47.666;9.434;2023-06-01T05:59:33;15.80;92.00
15676;DHT22;7938;47.666;9.434;2023-06-01T06:02:01;15.90;91.60
15676;DHT22;7938;47.666;9.434;2023-06-01T06:04:28;15.90;91.50
15676;DHT22;7938;47.666;9.434;2023-06-01T06:06:55;16.00;91.10
15676;DHT22;7938;47.666;9.434;2023-06-01T06:09:22;16.10;91.10
15676;DHT22;7938;47.666;9.434;2023-06-01T06:11:50;16.10;90.60
15676;DHT22;7938;47.666;9.434;2023-06-01T06:14:17;16.20;91.00
15676;DHT22;7938;47.666;9.434;2023-06-01T06:16:52;16.20;91.10
15676;DHT22;7938;47.666;9.434;2023-06-01T06:19:21;16.20;90.50
15676;DHT22;7938;47.666;9.434;2023-06-01T06:21:48;16.40;90.90
15676;DHT22;7938;47.666;9.434;2023-06-01T06:24:15;16.40;90.80
15676;DHT22;7938;47.666;9.434;2023-06-01T06:26:42;16.60;91.00
15676;DHT22;7938;47.666;9.434;2023-06-01T06:29:09;16.70;90.30
15676;DHT22;7938;47.666;9.434;2023-06-01T06:31:36;16.90;90.20
15676;DHT22;7938;47.666;9.434;2023-06-01T06:34:03;16.90;90.00
15676;DHT22;7938;47.666;9.434;2023-06-01T06:36:32;17.00;90.00
15676;DHT22;7938;47.666;9.434;2023-06-01T06:38:59;17.10;90.00
15676;DHT22;7938;47.666;9.434;2023-06-01T06:41:26;17.10;90.00
15676;DHT22;7938;47.666;9.434;2023-06-01T06:43:53;17.20;90.30
15676;DHT22;7938;47.666;9.434;2023-06-01T06:46:20;17.20;89.40
15676;DHT22;7938;47.666;9.434;2023-06-01T06:48:47;17.30;89.80
15676;DHT22;7938;47.666;9.434;2023-06-01T06:51:13;17.30;88.10
15676;DHT22;7938;47.666;9.434;2023-06-01T06:53:42;17.40;89.90
15676;DHT22;7938;47.666;9.434;2023-06-01T06:56:12;17.40;89.20
15676;DHT22;7938;47.666;9.434;2023-06-01T06:58:39;17.40;88.90
15676;DHT22;7938;47.666;9.434;2023-06-01T07:01:09;17.30;91.20
15676;DHT22;7938;47.666;9.434;2023-06-01T07:03:36;17.30;91.60
15676;DHT22;7938;47.666;9.434;2023-06-01T07:06:04;17.00;92.30
15676;DHT22;7938;47.666;9.434;2023-06-01T07:08:32;16.60;92.90
15676;DHT22;7938;47.666;9.434;2023-06-01T07:11:01;16.40;92.70
15676;DHT22;7938;47.666;9.434;2023-06-01T07:13:29;16.50;93.20
15676;DHT22;7938;47.666;9.434;2023-06-01T07:15:56;16.40;92.90
15676;DHT22;7938;47.666;9.434;2023-06-01T07:18:23;16.40;93.10
15676;DHT22;7938;47.666;9.434;2023-06-01T07:20:52;16.40;92.60
15676;DHT22;7938;47.666;9.434;2023-06-01T07:23:19;16.40;92.90
15676;DHT22;7938;47.666;9.434;2023-06-01T07:25:46;16.40;93.00
15676;DHT22;7938;47.666;9.434;2023-06-01T07:28:15;16.50;93.30
15676;DHT22;7938;47.666;9.434;2023-06-01T07:30:42;16.70;92.50
15676;DHT22;7938;47.666;9.434;2023-06-01T07:33:09;16.70;92.50
15676;DHT22;7938;47.666;9.434;2023-06-01T07:35:36;16.70;92.60
15676;DHT22;7938;47.666;9.434;2023-06-01T07:38:03;16.80;91.70
15676;DHT22;7938;47.666;9.434;2023-06-01T07:40:30;17.00;91.90
15676;DHT22;7938;47.666;9.434;2023-06-01T07:42:57;17.00;92.30
15676;DHT22;7938;47.666;9.434;2023-06-01T07:45:25;17.10;91.90
15676;DHT22;7938;47.666;9.434;2023-06-01T07:47:52;17.00;92.40
15676;DHT22;7938;47.666;9.434;2023-06-01T07:50:20;17.10;92.30
15676;DHT22;7938;47.666;9.434;2023-06-01T07:52:49;17.10;92.10
15676;DHT22;7938;47.666;9.434;2023-06-01T07:55:18;17.00;91.80
15676;DHT22;7938;47.666;9.434;2023-06-01T07:57:59;17.10;91.90
15676;DHT22;7938;47.666;9.434;2023-06-01T08:00:27;17.30;92.10
15676;DHT22;7938;47.666;9.434;2023-06-01T08:02:54;17.30;92.30
15676;DHT22;7938;47.666;9.434;2023-06-01T08:05:23;17.40;92.50
15676;DHT22;7938;47.666;9.434;2023-06-01T08:07:50;17.50;92.30
15676;DHT22;7938;47.666;9.434;2023-06-01T08:10:18;17.50;92.20
15676;DHT22;7938;47.666;9.434;2023-06-01T08:12:45;17.60;92.50
15676;DHT22;7938;47.666;9.434;2023-06-01T08:15:14;17.70;92.70
15676;DHT22;7938;47.666;9.434;2023-06-01T08:17:42;17.80;91.40
15676;DHT22;7938;47.666;9.434;2023-06-01T08:20:10;17.70;91.20
15676;DHT22;7938;47.666;9.434;2023-06-01T08:22:37;17.60;91.70
15676;DHT22;7938;47.666;9.434;2023-06-01T08:25:05;17.60;91.60
15676;DHT22;7938;47.666;9.434;2023-06-01T08:27:32;17.60;91.30
15676;DHT22;7938;47.666;9.434;2023-06-01T08:29:59;17.80;91.40
15676;DHT22;7938;47.666;9.434;2023-06-01T08:32:26;17.80;91.90
15676;DHT22;7938;47.666;9.434;2023-06-01T08:34:54;17.90;91.50
15676;DHT22;7938;47.666;9.434;2023-06-01T08:37:21;17.90;91.70
15676;DHT22;7938;47.666;9.434;2023-06-01T08:39:49;18.10;91.10
15676;DHT22;7938;47.666;9.434;2023-06-01T08:42:20;18.10;91.40
15676;DHT22;7938;47.666;9.434;2023-06-01T08:44:53;18.10;91.60
15676;DHT22;7938;47.666;9.434;2023-06-01T08:47:22;18.10;91.20
15676;DHT22;7938;47.666;9.434;2023-06-01T08:49:51;18.00;92.10
15676;DHT22;7938;47.666;9.434;2023-06-01T08:52:21;18.00;91.80
15676;DHT22;7938;47.666;9.434;2023-06-01T08:54:50;18.10;91.80
15676;DHT22;7938;47.666;9.434;2023-06-01T08:57:16;18.20;91.30
15676;DHT22;7938;47.666;9.434;2023-06-01T08:59:46;18.40;90.70
15676;DHT22;7938;47.666;9.434;2023-06-01T09:02:13;18.50;90.50
15676;DHT22;7938;47.666;9.434;2023-06-01T09:04:41;18.50;90.50
15676;DHT22;7938;47.666;9.434;2023-06-01T09:07:10;18.50;90.30
15676;DHT22;7938;47.666;9.434;2023-06-01T09:09:39;18.50;90.50
15676;DHT22;7938;47.666;9.434;2023-06-01T09:12:23;18.60;90.60
15676;DHT22;7938;47.666;9.434;2023-06-01T09:15:10;18.70;89.90
15676;DHT22;7938;47.666;9.434;2023-06-01T09:17:38;18.80;89.20
15676;DHT22;7938;47.666;9.434;2023-06-01T09:20:06;19.00;89.20
15676;DHT22;7938;47.666;9.434;2023-06-01T09:22:38;19.10;89.40
15676;DHT22;7938;47.666;9.434;2023-06-01T09:25:08;19.20;89.90
15676;DHT22;7938;47.666;9.434;2023-06-01T09:27:45;19.30;90.20
15676;DHT22;7938;47.666;9.434;2023-06-01T09:30:13;19.30;90.40
15676;DHT22;7938;47.666;9.434;2023-06-01T09:32:40;19.40;90.00
15676;DHT22;7938;47.666;9.434;2023-06-01T09:35:08;19.50;90.00
15676;DHT22;7938;47.666;9.434;2023-06-01T09:37:37;19.50;89.70
15676;DHT22;7938;47.666;9.434;2023-06-01T09:40:17;19.60;90.60
15676;DHT22;7938;47.666;9.434;2023-06-01T09:42:45;19.80;87.40
15676;DHT22;7938;47.666;9.434;2023-06-01T09:45:18;19.90;88.50
15676;DHT22;7938;47.666;9.434;2023-06-01T09:47:46;19.80;89.00
15676;DHT22;7938;47.666;9.434;2023-06-01T09:50:31;20.00;87.40
15676;DHT22;7938;47.666;9.434;2023-06-01T09:52:59;20.00;89.30
15676;DHT22;7938;47.666;9.434;2023-06-01T09:55:28;20.10;89.70
15676;DHT22;7938;47.666;9.434;2023-06-01T09:58:18;20.10;89.30
15676;DHT22;7938;47.666;9.434;2023-06-01T10:00:47;20.20;89.20
15676;DHT22;7938;47.666;9.434;2023-06-01T10:03:15;20.30;88.60
15676;DHT22;7938;47.666;9.434;2023-06-01T10:05:43;20.40;88.60
15676;DHT22;7938;47.666;9.434;2023-06-01T10:08:11;20.40;89.60
15676;DHT22;7938;47.666;9.434;2023-06-01T10:10:42;20.60;89.90
15676;DHT22;7938;47.666;9.434;2023-06-01T10:13:10;20.50;89.20
15676;DHT22;7938;47.666;9.434;2023-06-01T10:15:37;20.40;89.10
15676;DHT22;7938;47.666;9.434;2023-06-01T10:18:04;20.50;88.10
15676;DHT22;7938;47.666;9.434;2023-06-01T10:20:32;20.60;87.80
15676;DHT22;7938;47.666;9.434;2023-06-01T10:23:01;20.50;88.00
15676;DHT22;7938;47.666;9.434;2023-06-01T10:25:31;20.60;87.40
15676;DHT22;7938;47.666;9.434;2023-06-01T10:28:02;20.80;87.90
15676;DHT22;7938;47.666;9.434;2023-06-01T10:30:31;20.70;88.40
15676;DHT22;7938;47.666;9.434;2023-06-01T10:32:57;20.70;89.50
15676;DHT22;7938;47.666;9.434;2023-06-01T10:38:28;20.90;86.70
15676;DHT22;7938;47.666;9.434;2023-06-01T10:41:30;21.00;87.90
15676;DHT22;7938;47.666;9.434;2023-06-01T10:43:59;21.00;87.80
15676;DHT22;7938;47.666;9.434;2023-06-01T10:46:42;21.30;84.60
15676;DHT22;7938;47.666;9.434;2023-06-01T10:49:09;21.40;85.80
15676;DHT22;7938;47.666;9.434;2023-06-01T10:51:36;21.40;87.60
15676;DHT22;7938;47.666;9.434;2023-06-01T10:54:26;21.40;85.60
15676;DHT22;7938;47.666;9.434;2023-06-01T10:57:22;21.30;88.40
15676;DHT22;7938;47.666;9.434;2023-06-01T11:00:11;21.60;86.00
15676;DHT22;7938;47.666;9.434;2023-06-01T11:02:58;21.60;84.60
15676;DHT22;7938;47.666;9.434;2023-06-01T11:05:43;21.40;84.30
15676;DHT22;7938;47.666;9.434;2023-06-01T11:11:16;21.60;85.70
15676;DHT22;7938;47.666;9.434;2023-06-01T11:13:44;21.70;87.70
15676;DHT22;7938;47.666;9.434;2023-06-01T11:16:32;21.60;84.10
15676;DHT22;7938;47.666;9.434;2023-06-01T11:19:01;21.50;86.30
15676;DHT22;7938;47.666;9.434;2023-06-01T11:21:30;21.50;84.90
15676;DHT22;7938;47.666;9.434;2023-06-01T11:24:00;21.60;86.10
15676;DHT22;7938;47.666;9.434;2023-06-01T11:26:34;21.80;86.80
15676;DHT22;7938;47.666;9.434;2023-06-01T11:29:13;21.80;87.70
15676;DHT22;7938;47.666;9.434;2023-06-01T11:31:47;21.90;84.50
15676;DHT22;7938;47.666;9.434;2023-06-01T11:34:15;22.10;87.10
15676;DHT22;7938;47.666;9.434;2023-06-01T11:36:45;22.20;88.00
15676;DHT22;7938;47.666;9.434;2023-06-01T11:39:22;22.20;86.40
15676;DHT22;7938;47.666;9.434;2023-06-01T11:42:03;22.30;86.00
15676;DHT22;7938;47.666;9.434;2023-06-01T11:44:32;22.40;85.80
15676;DHT22;7938;47.666;9.434;2023-06-01T11:47:01;22.60;85.40
15676;DHT22;7938;47.666;9.434;2023-06-01T11:49:28;22.30;84.90
15676;DHT22;7938;47.666;9.434;2023-06-01T11:51:55;22.30;84.30
15676;DHT22;7938;47.666;9.434;2023-06-01T11:54:26;22.30;86.80
15676;DHT22;7938;47.666;9.434;2023-06-01T11:56:55;22.30;87.40
15676;DHT22;7938;47.666;9.434;2023-06-01T11:59:22;22.40;86.40
15676;DHT22;7938;47.666;9.434;2023-06-01T12:01:50;22.40;87.50
15676;DHT22;7938;47.666;9.434;2023-06-01T12:04:22;22.30;87.50
15676;DHT22;7938;47.666;9.434;2023-06-01T12:06:50;22.30;87.30
15676;DHT22;7938;47.666;9.434;2023-06-01T12:09:18;22.50;86.50
15676;DHT22;7938;47.666;9.434;2023-06-01T12:11:46;22.60;85.70
15676;DHT22;7938;47.666;9.434;2023-06-01T12:14:14;22.30;85.40
15676;DHT22;7938;47.666;9.434;2023-06-01T12:16:57;22.50;88.00
15676;DHT22;7938;47.666;9.434;2023-06-01T12:19:28;22.70;88.90
15676;DHT22;7938;47.666;9.434;2023-06-01T12:21:56;23.00;88.30
15676;DHT22;7938;47.666;9.434;2023-06-01T12:24:27;23.10;87.40
15676;DHT22;7938;47.666;9.434;2023-06-01T12:26:55;23.30;86.30
15676;DHT22;7938;47.666;9.434;2023-06-01T12:29:40;23.40;88.70
15676;DHT22;7938;47.666;9.434;2023-06-01T12:32:09;23.70;82.80
15676;DHT22;7938;47.666;9.434;2023-06-01T12:34:39;23.70;82.00
15676;DHT22;7938;47.666;9.434;2023-06-01T12:37:14;23.50;86.20
15676;DHT22;7938;47.666;9.434;2023-06-01T12:39:41;23.40;83.60
15676;DHT22;7938;47.666;9.434;2023-06-01T12:42:09;23.70;84.40
15676;DHT22;7938;47.666;9.434;2023-06-01T12:44:37;23.80;85.40
15676;DHT22;7938;47.666;9.434;2023-06-01T12:47:06;23.90;85.00
15676;DHT22;7938;47.666;9.434;2023-06-01T12:49:33;23.60;85.20
15676;DHT22;7938;47.666;9.434;2023-06-01T12:52:01;23.40;86.00
15676;DHT22;7938;47.666;9.434;2023-06-01T12:54:28;23.50;88.10
15676;DHT22;7938;47.666;9.434;2023-06-01T12:56:55;23.30;82.70
15676;DHT22;7938;47.666;9.434;2023-06-01T12:59:23;23.50;85.80
15676;DHT22;7938;47.666;9.434;2023-06-01T13:01:50;23.70;83.20
15676;DHT22;7938;47.666;9.434;2023-06-01T13:04:17;23.90;82.10
15676;DHT22;7938;47.666;9.434;2023-06-01T13:06:44;24.00;87.40
15676;DHT22;7938;47.666;9.434;2023-06-01T13:09:12;24.00;79.70
15676;DHT22;7938;47.666;9.434;2023-06-01T13:11:40;24.00;82.50
15676;DHT22;7938;47.666;9.434;2023-06-01T13:14:07;24.10;81.80
15676;DHT22;7938;47.666;9.434;2023-06-01T13:16:35;24.10;79.80
15676;DHT22;7938;47.666;9.434;2023-06-01T13:19:01;24.10;79.20
15676;DHT22;7938;47.666;9.434;2023-06-01T13:21:30;24.20;80.20
15676;DHT22;7938;47.666;9.434;2023-06-01T13:23:59;24.40;79.60
15676;DHT22;7938;47.666;9.434;2023-06-01T13:26:28;24.40;82.60
15676;DHT22;7938;47.666;9.434;2023-06-01T13:28:55;24.40;78.80
15676;DHT22;7938;47.666;9.434;2023-06-01T13:31:22;24.50;77.90
15676;DHT22;7938;47.666;9.434;2023-06-01T13:33:49;24.70;78.30
15676;DHT22;7938;47.666;9.434;2023-06-01T13:36:16;25.20;80.60
15676;DHT22;7938;47.666;9.434;2023-06-01T13:38:43;25.60;75.70
15676;DHT22;7938;47.666;9.434;2023-06-01T13:41:10;26.00;75.80
15676;DHT22;7938;47.666;9.434;2023-06-01T13:43:39;26.30;77.20
15676;DHT22;7938;47.666;9.434;2023-06-01T13:46:06;26.20;76.10
15676;DHT22;7938;47.666;9.434;2023-06-01T13:48:35;26.40;79.60
15676;DHT22;7938;47.666;9.434;2023-06-01T13:51:02;26.90;74.20
15676;DHT22;7938;47.666;9.434;2023-06-01T13:53:30;27.10;73.90
15676;DHT22;7938;47.666;9.434;2023-06-01T13:55:57;28.60;73.10
15676;DHT22;7938;47.666;9.434;2023-06-01T13:58:24;29.80;70.80
15676;DHT22;7938;47.666;9.434;2023-06-01T14:00:53;30.30;69.80
15676;DHT22;7938;47.666;9.434;2023-06-01T14:03:20;30.50;69.50
15676;DHT22;7938;47.666;9.434;2023-06-01T14:05:47;30.40;66.90
15676;DHT22;7938;47.666;9.434;2023-06-01T14:08:14;30.40;66.80
15676;DHT22;7938;47.666;9.434;2023-06-01T14:10:41;32.30;64.10
15676;DHT22;7938;47.666;9.434;2023-06-01T14:13:08;32.20;64.90
15676;DHT22;7938;47.666;9.434;2023-06-01T14:15:35;32.70;62.90
15676;DHT22;7938;47.666;9.434;2023-06-01T14:18:03;32.20;63.00
15676;DHT22;7938;47.666;9.434;2023-06-01T14:20:31;31.40;65.60
15676;DHT22;7938;47.666;9.434;2023-06-01T14:22:58;31.40;66.80
15676;DHT22;7938;47.666;9.434;2023-06-01T14:25:26;32.10;64.30
15676;DHT22;7938;47.666;9.434;2023-06-01T14:27:53;33.50;61.20
15676;DHT22;7938;47.666;9.434;2023-06-01T14:30:20;34.20;60.70
15676;DHT22;7938;47.666;9.434;2023-06-01T14:32:47;34.70;59.70
15676;DHT22;7938;47.666;9.434;2023-06-01T14:35:15;34.70;61.30
15676;DHT22;7938;47.666;9.434;2023-06-01T14:37:44;34.20;60.00
15676;DHT22;7938;47.666;9.434;2023-06-01T14:40:11;34.20;59.50
15676;DHT22;7938;47.666;9.434;2023-06-01T14:42:38;34.60;58.70
15676;DHT22;7938;47.666;9.434;2023-06-01T14:45:07;34.50;59.50
15676;DHT22;7938;47.666;9.434;2023-06-01T14:47:34;34.30;57.60
15676;DHT22;7938;47.666;9.434;2023-06-01T14:50:01;33.50;60.10
15676;DHT22;7938;47.666;9.434;2023-06-01T14:52:31;33.50;58.70
15676;DHT22;7938;47.666;9.434;2023-06-01T14:54:59;34.00;58.00
15676;DHT22;7938;47.666;9.434;2023-06-01T14:57:27;34.50;57.30
15676;DHT22;7938;47.666;9.434;2023-06-01T14:59:53;34.40;59.40
15676;DHT22;7938;47.666;9.434;2023-06-01T15:02:20;34.80;56.60
15676;DHT22;7938;47.666;9.434;2023-06-01T15:04:47;34.90;57.80
15676;DHT22;7938;47.666;9.434;2023-06-01T15:07:14;35.00;57.80
15676;DHT22;7938;47.666;9.434;2023-06-01T15:09:44;35.20;55.40
15676;DHT22;7938;47.666;9.434;2023-06-01T15:12:11;34.20;55.40
15676;DHT22;7938;47.666;9.434;2023-06-01T15:14:39;34.90;58.20
15676;DHT22;7938;47.666;9.434;2023-06-01T15:17:06;35.10;58.00
15676;DHT22;7938;47.666;9.434;2023-06-01T15:19:33;35.00;58.90
15676;DHT22;7938;47.666;9.434;2023-06-01T15:22:00;34.60;56.10
15676;DHT22;7938;47.666;9.434;2023-06-01T15:24:27;35.70;55.50
15676;DHT22;7938;47.666;9.434;2023-06-01T15:26:55;36.90;53.80
15676;DHT22;7938;47.666;9.434;2023-06-01T15:29:22;36.90;54.80
15676;DHT22;7938;47.666;9.434;2023-06-01T15:31:49;36.80;54.60
15676;DHT22;7938;47.666;9.434;2023-06-01T15:34:16;36.50;52.50
15676;DHT22;7938;47.666;9.434;2023-06-01T15:36:43;35.80;54.90
15676;DHT22;7938;47.666;9.434;2023-06-01T15:39:10;36.60;56.90
15676;DHT22;7938;47.666;9.434;2023-06-01T15:41:37;36.80;54.80
15676;DHT22;7938;47.666;9.434;2023-06-01T15:44:05;35.80;54.20
15676;DHT22;7938;47.666;9.434;2023-06-01T15:46:33;36.80;53.90
15676;DHT22;7938;47.666;9.434;2023-06-01T15:49:00;37.00;52.40
15676;DHT22;7938;47.666;9.434;2023-06-01T15:51:27;35.80;53.60
15676;DHT22;7938;47.666;9.434;2023-06-01T15:53:54;34.30;57.50
15676;DHT22;7938;47.666;9.434;2023-06-01T15:56:21;35.60;56.30
15676;DHT22;7938;47.666;9.434;2023-06-01T15:58:48;35.10;54.90
15676;DHT22;7938;47.666;9.434;2023-06-01T16:01:17;36.20;57.00
15676;DHT22;7938;47.666;9.434;2023-06-01T16:03:44;36.30;56.40
15676;DHT22;7938;47.666;9.434;2023-06-01T16:06:11;35.90;56.50
15676;DHT22;7938;47.666;9.434;2023-06-01T16:08:38;33.70;60.00
15676;DHT22;7938;47.666;9.434;2023-06-01T16:11:05;30.30;65.90
15676;DHT22;7938;47.666;9.434;2023-06-01T16:13:32;30.00;67.90
15676;DHT22;7938;47.666;9.434;2023-06-01T16:15:59;31.10;66.10
15676;DHT22;7938;47.666;9.434;2023-06-01T16:18:27;31.70;64.50
15676;DHT22;7938;47.666;9.434;2023-06-01T16:20:54;31.30;63.50
15676;DHT22;7938;47.666;9.434;2023-06-01T16:23:21;31.50;64.40
15676;DHT22;7938;47.666;9.434;2023-06-01T16:25:48;31.40;62.10
15676;DHT22;7938;47.666;9.434;2023-06-01T16:28:15;32.30;63.80
15676;DHT22;7938;47.666;9.434;2023-06-01T16:30:42;33.80;57.10
15676;DHT22;7938;47.666;9.434;2023-06-01T16:33:10;33.90;58.20
15676;DHT22;7938;47.666;9.434;2023-06-01T16:35:38;34.40;56.90
15676;DHT22;7938;47.666;9.434;2023-06-01T16:38:06;33.90;56.00
15676;DHT22;7938;47.666;9.434;2023-06-01T16:40:33;31.00;59.80
15676;DHT22;7938;47.666;9.434;2023-06-01T16:43:00;30.90;60.40
15676;DHT22;7938;47.666;9.434;2023-06-01T16:45:27;29.40;64.50
15676;DHT22;7938;47.666;9.434;2023-06-01T16:47:54;29.80;64.00
15676;DHT22;7938;47.666;9.434;2023-06-01T16:50:22;29.10;65.00
15676;DHT22;7938;47.666;9.434;2023-06-01T16:52:50;29.30;64.70
15676;DHT22;7938;47.666;9.434;2023-06-01T16:55:17;30.60;64.10
15676;DHT22;7938;47.666;9.434;2023-06-01T16:57:44;30.90;64.00
15676;DHT22;7938;47.666;9.434;2023-06-01T17:00:12;31.60;61.60
15676;DHT22;7938;47.666;9.434;2023-06-01T17:02:39;31.70;61.70
15676;DHT22;7938;47.666;9.434;2023-06-01T17:05:07;31.60;61.90
15676;DHT22;7938;47.666;9.434;2023-06-01T17:07:34;32.30;60.10
15676;DHT22;7938;47.666;9.434;2023-06-01T17:10:04;31.80;62.30
15676;DHT22;7938;47.666;9.434;2023-06-01T17:12:33;31.60;61.80
15676;DHT22;7938;47.666;9.434;2023-06-01T17:15:00;31.30;62.40
15676;DHT22;7938;47.666;9.434;2023-06-01T17:17:27;30.80;62.30
15676;DHT22;7938;47.666;9.434;2023-06-01T17:19:54;30.50;62.80
15676;DHT22;7938;47.666;9.434;2023-06-01T17:22:21;29.70;63.40
15676;DHT22;7938;47.666;9.434;2023-06-01T17:24:48;29.10;63.50
15676;DHT22;7938;47.666;9.434;2023-06-01T17:27:16;28.70;65.00
15676;DHT22;7938;47.666;9.434;2023-06-01T17:29:43;29.20;63.10
15676;DHT22;7938;47.666;9.434;2023-06-01T17:32:10;29.10;64.40
15676;DHT22;7938;47.666;9.434;2023-06-01T17:34:37;29.70;61.60
15676;DHT22;7938;47.666;9.434;2023-06-01T17:37:04;29.60;61.40
15676;DHT22;7938;47.666;9.434;2023-06-01T17:39:31;29.80;61.40
15676;DHT22;7938;47.666;9.434;2023-06-01T17:41:58;29.80;61.40
15676;DHT22;7938;47.666;9.434;2023-06-01T17:44:26;29.60;61.30
15676;DHT22;7938;47.666;9.434;2023-06-01T17:46:53;29.60;61.40
15676;DHT22;7938;47.666;9.434;2023-06-01T17:49:20;29.50;60.80
15676;DHT22;7938;47.666;9.434;2023-06-01T17:51:47;28.90;62.10
15676;DHT22;7938;47.666;9.434;2023-06-01T17:54:16;28.40;62.50
15676;DHT22;7938;47.666;9.434;2023-06-01T17:56:43;27.50;62.90
15676;DHT22;7938;47.666;9.434;2023-06-01T17:59:10;26.90;65.40
15676;DHT22;7938;47.666;9.434;2023-06-01T18:01:39;25.90;65.70
15676;DHT22;7938;47.666;9.434;2023-06-01T18:04:06;25.70;67.20
15676;DHT22;7938;47.666;9.434;2023-06-01T18:06:33;25.20;68.70
15676;DHT22;7938;47.666;9.434;2023-06-01T18:09:01;24.90;69.30
15676;DHT22;7938;47.666;9.434;2023-06-01T18:11:28;24.40;70.10
15676;DHT22;7938;47.666;9.434;2023-06-01T18:13:55;24.30;70.10
15676;DHT22;7938;47.666;9.434;2023-06-01T18:16:24;24.10;70.40
15676;DHT22;7938;47.666;9.434;2023-06-01T18:18:52;23.80;70.30
15676;DHT22;7938;47.666;9.434;2023-06-01T18:21:19;23.50;70.90
15676;DHT22;7938;47.666;9.434;2023-06-01T18:23:46;23.30;72.30
15676;DHT22;7938;47.666;9.434;2023-06-01T18:26:15;23.00;71.40
15676;DHT22;7938;47.666;9.434;2023-06-01T18:28:42;22.90;72.40
15676;DHT22;7938;47.666;9.434;2023-06-01T18:31:10;22.70;72.70
15676;DHT22;7938;47.666;9.434;2023-06-01T18:33:37;22.60;73.40
15676;DHT22;7938;47.666;9.434;2023-06-01T18:36:07;22.40;72.40
15676;DHT22;7938;47.666;9.434;2023-06-01T18:38:34;22.30;73.30
15676;DHT22;7938;47.666;9.434;2023-06-01T18:41:01;22.10;73.60
15676;DHT22;7938;47.666;9.434;2023-06-01T18:43:28;22.10;74.20
15676;DHT22;7938;47.666;9.434;2023-06-01T18:45:55;21.90;75.30
15676;DHT22;7938;47.666;9.434;2023-06-01T18:48:23;21.80;75.70
15676;DHT22;7938;47.666;9.434;2023-06-01T18:50:50;21.50;75.50
15676;DHT22;7938;47.666;9.434;2023-06-01T18:53:19;21.50;77.00
15676;DHT22;7938;47.666;9.434;2023-06-01T18:55:47;21.40;76.30
15676;DHT22;7938;47.666;9.434;2023-06-01T18:58:15;21.30;76.90
15676;DHT22;7938;47.666;9.434;2023-06-01T19:00:42;21.00;78.30
15676;DHT22;7938;47.666;9.434;2023-06-01T19:03:11;21.00;78.10
15676;DHT22;7938;47.666;9.434;2023-06-01T19:05:39;20.90;80.20
15676;DHT22;7938;47.666;9.434;2023-06-01T19:08:06;20.80;80.70
15676;DHT22;7938;47.666;9.434;2023-06-01T19:10:56;20.50;80.80
15676;DHT22;7938;47.666;9.434;2023-06-01T19:13:30;20.40;79.30
15676;DHT22;7938;47.666;9.434;2023-06-01T19:15:58;20.30;79.80
15676;DHT22;7938;47.666;9.434;2023-06-01T19:18:26;20.20;80.40
15676;DHT22;7938;47.666;9.434;2023-06-01T19:21:12;20.00;82.10
15676;DHT22;7938;47.666;9.434;2023-06-01T19:23:51;19.90;83.50
15676;DHT22;7938;47.666;9.434;2023-06-01T19:26:23;19.80;84.40
15676;DHT22;7938;47.666;9.434;2023-06-01T19:28:56;19.70;84.90
15676;DHT22;7938;47.666;9.434;2023-06-01T19:31:28;19.70;83.40
15676;DHT22;7938;47.666;9.434;2023-06-01T19:33:57;19.70;83.90
15676;DHT22;7938;47.666;9.434;2023-06-01T19:36:51;19.60;84.30
15676;DHT22;7938;47.666;9.434;2023-06-01T19:39:32;19.50;86.70
15676;DHT22;7938;47.666;9.434;2023-06-01T19:42:21;19.30;86.30
15676;DHT22;7938;47.666;9.434;2023-06-01T19:44:56;19.20;89.00
15676;DHT22;7938;47.666;9.434;2023-06-01T19:47:39;19.10;90.00
15676;DHT22;7938;47.666;9.434;2023-06-01T19:50:26;18.90;90.40
15676;DHT22;7938;47.666;9.434;2023-06-01T19:52:59;18.70;88.90
15676;DHT22;7938;47.666;9.434;2023-06-01T19:55:27;18.70;89.60
15676;DHT22;7938;47.666;9.434;2023-06-01T19:57:56;18.70;89.90
15676;DHT22;7938;47.666;9.434;2023-06-01T20:00:25;18.70;91.20
15676;DHT22;7938;47.666;9.434;2023-06-01T20:02:54;18.60;91.00